sensor_id;sensor_type;location;lat;lon;timestamp;pressure;altitude;pressure_sealevel;temperature;humidity
21980;BME280;11154;48.558;9.234;2022-11-03T00:01:35;97974.59;;;8.81;100.00
21980;BME280;11154;48.558;9.234;2022-11-03T00:03:37;97966.53;;;8.73;100.00
21980;BME280;11154;48.558;9.234;2022-11-03T00:05:38;97972.50;;;8.75;100.00
21980;BME280;11154;48.558;9.234;2022-11-03T00:08:00;97971.69;;;8.75;100.00
21980;BME280;11154;48.558;9.234;2022-11-03T00:10:02;97970.41;;;8.79;100.00
21980;BME280;11154;48.558;9.234;2022-11-03T00:12:04;97976.44;;;8.90;100.00
21980;BME280;11154;48.558;9.234;2022-11-03T00:14:09;97976.28;;;8.92;100.00
21980;BME280;11154;48.558;9.234;2022-11-03T00:16:11;97978.66;;;8.95;100.00
21980;BME280;11154;48.558;9.234;2022-11-03T00:18:13;97978.66;;;8.95;100.00
21980;BME280;11154;48.558;9.234;2022-11-03T00:20:15;97961.88;;;9.04;100.00
21980;BME280;11154;48.558;9.234;2022-11-03T00:22:16;97966.22;;;9.05;100.00
21980;BME280;11154;48.558;9.234;2022-11-03T00:24:18;97961.78;;;9.05;100.00
21980;BME280;11154;48.558;9.234;2022-11-03T00:26:21;97957.56;;;9.03;100.00
21980;BME280;11154;48.558;9.234;2022-11-03T00:28:23;97959.81;;;8.98;100.00
21980;BME280;11154;48.558;9.234;2022-11-03T00:30:26;97959.13;;;8.96;100.00
21980;BME280;11154;48.558;9.234;2022-11-03T00:32:27;97954.78;;;8.95;100.00
21980;BME280;11154;48.558;9.234;2022-11-03T00:34:29;97951.75;;;8.90;100.00
21980;BME280;11154;48.558;9.234;2022-11-03T00:36:32;97949.63;;;8.93;100.00
21980;BME280;11154;48.558;9.234;2022-11-03T00:38:34;97955.06;;;8.92;100.00
21980;BME280;11154;48.558;9.234;2022-11-03T00:40:36;97944.59;;;8.90;100.00
21980;BME280;11154;48.558;9.234;2022-11-03T00:42:38;97934.56;;;8.84;100.00
21980;BME280;11154;48.558;9.234;2022-11-03T00:44:40;97941.53;;;8.85;100.00
21980;BME280;11154;48.558;9.234;2022-11-03T00:46:42;97932.19;;;8.81;100.00
21980;BME280;11154;48.558;9.234;2022-11-03T00:48:44;97924.94;;;8.83;100.00
21980;BME280;11154;48.558;9.234;2022-11-03T00:50:46;97925.50;;;8.77;100.00
21980;BME280;11154;48.558;9.234;2022-11-03T00:52:47;97918.25;;;8.79;100.00
21980;BME280;11154;48.558;9.234;2022-11-03T00:54:49;97912.50;;;8.74;100.00
21980;BME280;11154;48.558;9.234;2022-11-03T00:56:51;97910.72;;;8.75;100.00
21980;BME280;11154;48.558;9.234;2022-11-03T00:58:53;97908.63;;;8.69;100.00
21980;BME280;11154;48.558;9.234;2022-11-03T01:00:59;97915.72;;;8.78;100.00
21980;BME280;11154;48.558;9.234;2022-11-03T01:03:05;97912.78;;;8.81;100.00
21980;BME280;11154;48.558;9.234;2022-11-03T01:05:07;97907.66;;;8.79;100.00
21980;BME280;11154;48.558;9.234;2022-11-03T01:07:26;97909.59;;;8.77;100.00
21980;BME280;11154;48.558;9.234;2022-11-03T01:09:29;97897.31;;;8.76;100.00
21980;BME280;11154;48.558;9.234;2022-11-03T01:11:32;97903.72;;;8.74;100.00
21980;BME280;11154;48.558;9.234;2022-11-03T01:13:45;97899.69;;;8.70;100.00
21980;BME280;11154;48.558;9.234;2022-11-03T01:15:47;97908.78;;;8.67;100.00
21980;BME280;11154;48.558;9.234;2022-11-03T01:17:48;97892.56;;;8.61;100.00
21980;BME280;11154;48.558;9.234;2022-11-03T01:19:52;97898.03;;;8.60;100.00
21980;BME280;11154;48.558;9.234;2022-11-03T01:21:54;97889.09;;;8.61;100.00
21980;BME280;11154;48.558;9.234;2022-11-03T01:23:56;97882.28;;;8.58;100.00
21980;BME280;11154;48.558;9.234;2022-11-03T01:26:02;97893.13;;;8.46;100.00
21980;BME280;11154;48.558;9.234;2022-11-03T01:28:05;97879.47;;;8.50;100.00
21980;BME280;11154;48.558;9.234;2022-11-03T01:30:07;97877.25;;;8.46;100.00
21980;BME280;11154;48.558;9.234;2022-11-03T01:32:09;97872.75;;;8.37;100.00
21980;BME280;11154;48.558;9.234;2022-11-03T01:34:13;97878.22;;;8.35;100.00
21980;BME280;11154;48.558;9.234;2022-11-03T01:36:17;97870.69;;;8.40;100.00
21980;BME280;11154;48.558;9.234;2022-11-03T01:38:19;97867.22;;;8.30;100.00
21980;BME280;11154;48.558;9.234;2022-11-03T01:40:21;97876.94;;;8.39;100.00
21980;BME280;11154;48.558;9.234;2022-11-03T01:42:22;97870.56;;;8.42;100.00
21980;BME280;11154;48.558;9.234;2022-11-03T01:44:27;97862.47;;;8.43;100.00
21980;BME280;11154;48.558;9.234;2022-11-03T01:46:29;97865.53;;;8.39;100.00
21980;BME280;11154;48.558;9.234;2022-11-03T01:48:32;97866.66;;;8.36;100.00
21980;BME280;11154;48.558;9.234;2022-11-03T01:50:35;97863.28;;;8.34;100.00
21980;BME280;11154;48.558;9.234;2022-11-03T01:52:42;97859.09;;;8.22;100.00
21980;BME280;11154;48.558;9.234;2022-11-03T01:54:47;97853.09;;;8.20;100.00
21980;BME280;11154;48.558;9.234;2022-11-03T01:56:50;97853.81;;;8.22;100.00
21980;BME280;11154;48.558;9.234;2022-11-03T01:58:53;97858.28;;;8.22;100.00
21980;BME280;11154;48.558;9.234;2022-11-03T02:00:57;97856.03;;;8.27;100.00
21980;BME280;11154;48.558;9.234;2022-11-03T02:03:00;97845.31;;;8.28;100.00
21980;BME280;11154;48.558;9.234;2022-11-03T02:05:04;97838.47;;;8.26;100.00
21980;BME280;11154;48.558;9.234;2022-11-03T02:07:12;97834.28;;;8.23;100.00
21980;BME280;11154;48.558;9.234;2022-11-03T02:09:18;97840.72;;;8.30;100.00
21980;BME280;11154;48.558;9.234;2022-11-03T02:11:19;97831.50;;;8.25;100.00
21980;BME280;11154;48.558;9.234;2022-11-03T02:13:39;97840.72;;;8.30;100.00
21980;BME280;11154;48.558;9.234;2022-11-03T02:15:41;97840.00;;;8.19;100.00
21980;BME280;11154;48.558;9.234;2022-11-03T02:17:45;97837.34;;;8.19;100.00
21980;BME280;11154;48.558;9.234;2022-11-03T02:19:50;97838.75;;;8.13;100.00
21980;BME280;11154;48.558;9.234;2022-11-03T02:21:57;97835.56;;;8.19;100.00
21980;BME280;11154;48.558;9.234;2022-11-03T02:24:08;97820.91;;;8.15;100.00
21980;BME280;11154;48.558;9.234;2022-11-03T02:26:14;97829.13;;;8.12;100.00
21980;BME280;11154;48.558;9.234;2022-11-03T02:28:18;97827.44;;;8.11;100.00
21980;BME280;11154;48.558;9.234;2022-11-03T02:30:20;97816.69;;;8.13;100.00
21980;BME280;11154;48.558;9.234;2022-11-03T02:32:24;97825.59;;;8.02;100.00
21980;BME280;11154;48.558;9.234;2022-11-03T02:34:30;97814.03;;;7.85;100.00
21980;BME280;11154;48.558;9.234;2022-11-03T02:36:37;97815.97;;;7.83;100.00
21980;BME280;11154;48.558;9.234;2022-11-03T02:38:45;97816.41;;;7.78;100.00
21980;BME280;11154;48.558;9.234;2022-11-03T02:40:49;97814.56;;;7.69;100.00
21980;BME280;11154;48.558;9.234;2022-11-03T02:42:55;97820.03;;;7.77;100.00
21980;BME280;11154;48.558;9.234;2022-11-03T02:44:59;97804.41;;;7.84;100.00
21980;BME280;11154;48.558;9.234;2022-11-03T02:47:05;97807.75;;;7.86;100.00
21980;BME280;11154;48.558;9.234;2022-11-03T02:49:08;97801.63;;;7.85;100.00
21980;BME280;11154;48.558;9.234;2022-11-03T02:51:09;97801.91;;;7.91;100.00
21980;BME280;11154;48.558;9.234;2022-11-03T02:53:12;97798.28;;;7.83;100.00
21980;BME280;11154;48.558;9.234;2022-11-03T02:55:16;97803.44;;;7.85;100.00
21980;BME280;11154;48.558;9.234;2022-11-03T02:57:23;97793.69;;;7.85;100.00
21980;BME280;11154;48.558;9.234;2022-11-03T02:59:32;97787.69;;;7.83;100.00
21980;BME280;11154;48.558;9.234;2022-11-03T03:01:36;97779.63;;;7.94;100.00
21980;BME280;11154;48.558;9.234;2022-11-03T03:03:48;97776.00;;;7.95;100.00
21980;BME280;11154;48.558;9.234;2022-11-03T03:05:54;97766.94;;;7.79;100.00
21980;BME280;11154;48.558;9.234;2022-11-03T03:08:01;97757.06;;;7.81;100.00
21980;BME280;11154;48.558;9.234;2022-11-03T03:10:07;97761.63;;;7.69;100.00
21980;BME280;11154;48.558;9.234;2022-11-03T03:12:10;97749.78;;;7.54;100.00
21980;BME280;11154;48.558;9.234;2022-11-03T03:14:16;97747.66;;;7.39;100.00
21980;BME280;11154;48.558;9.234;2022-11-03T03:16:23;97754.03;;;7.27;100.00
21980;BME280;11154;48.558;9.234;2022-11-03T03:18:30;97750.84;;;7.33;100.00
21980;BME280;11154;48.558;9.234;2022-11-03T03:20:38;97751.72;;;7.33;100.00
21980;BME280;11154;48.558;9.234;2022-11-03T03:22:44;97746.84;;;7.38;100.00
21980;BME280;11154;48.558;9.234;2022-11-03T03:24:53;97748.53;;;7.49;100.00
21980;BME280;11154;48.558;9.234;2022-11-03T03:27:00;97751.19;;;7.49;100.00
21980;BME280;11154;48.558;9.234;2022-11-03T03:29:06;97739.47;;;7.42;100.00
21980;BME280;11154;48.558;9.234;2022-11-03T03:31:11;97737.50;;;7.44;100.00
21980;BME280;11154;48.558;9.234;2022-11-03T03:33:16;97741.56;;;7.48;100.00
21980;BME280;11154;48.558;9.234;2022-11-03T03:35:21;97730.97;;;7.48;100.00
21980;BME280;11154;48.558;9.234;2022-11-03T03:37:25;97727.06;;;7.33;100.00
21980;BME280;11154;48.558;9.234;2022-11-03T03:39:32;97724.25;;;7.25;100.00
21980;BME280;11154;48.558;9.234;2022-11-03T03:41:35;97727.31;;;7.20;100.00
21980;BME280;11154;48.558;9.234;2022-11-03T03:43:39;97728.13;;;7.21;100.00
21980;BME280;11154;48.558;9.234;2022-11-03T03:45:43;97717.31;;;7.24;100.00
21980;BME280;11154;48.558;9.234;2022-11-03T03:47:46;97720.63;;;7.26;100.00
21980;BME280;11154;48.558;9.234;2022-11-03T03:49:50;97720.53;;;7.27;100.00
21980;BME280;11154;48.558;9.234;2022-11-03T03:51:52;97715.91;;;7.29;100.00
21980;BME280;11154;48.558;9.234;2022-11-03T03:53:54;97712.16;;;7.32;100.00
21980;BME280;11154;48.558;9.234;2022-11-03T03:55:56;97698.81;;;7.33;100.00
21980;BME280;11154;48.558;9.234;2022-11-03T03:57:58;97704.94;;;7.34;100.00
21980;BME280;11154;48.558;9.234;2022-11-03T04:00:00;97705.16;;;7.21;100.00
21980;BME280;11154;48.558;9.234;2022-11-03T04:02:01;97728.06;;;7.70;100.00
21980;BME280;11154;48.558;9.234;2022-11-03T04:04:03;97728.03;;;8.45;100.00
21980;BME280;11154;48.558;9.234;2022-11-03T04:06:07;97716.28;;;8.84;100.00
21980;BME280;11154;48.558;9.234;2022-11-03T04:08:09;97711.00;;;9.11;100.00
21980;BME280;11154;48.558;9.234;2022-11-03T04:10:10;97706.13;;;9.33;100.00
21980;BME280;11154;48.558;9.234;2022-11-03T04:12:12;97706.31;;;9.49;100.00
21980;BME280;11154;48.558;9.234;2022-11-03T04:14:31;97706.53;;;9.55;99.18
21980;BME280;11154;48.558;9.234;2022-11-03T04:16:50;97701.16;;;9.65;98.32
21980;BME280;11154;48.558;9.234;2022-11-03T04:19:10;97705.72;;;9.72;98.11
21980;BME280;11154;48.558;9.234;2022-11-03T04:21:39;97695.47;;;9.77;97.25
21980;BME280;11154;48.558;9.234;2022-11-03T04:23:58;97701.31;;;9.81;96.99
21980;BME280;11154;48.558;9.234;2022-11-03T04:26:00;97693.19;;;9.82;96.45
21980;BME280;11154;48.558;9.234;2022-11-03T04:28:07;97681.59;;;9.83;94.93
21980;BME280;11154;48.558;9.234;2022-11-03T04:30:13;97686.44;;;9.88;95.80
21980;BME280;11154;48.558;9.234;2022-11-03T04:32:16;97680.00;;;9.90;95.56
21980;BME280;11154;48.558;9.234;2022-11-03T04:34:18;97681.97;;;9.88;95.06
21980;BME280;11154;48.558;9.234;2022-11-03T04:36:21;97677.25;;;9.82;95.35
21980;BME280;11154;48.558;9.234;2022-11-03T04:38:26;97673.63;;;9.83;95.30
21980;BME280;11154;48.558;9.234;2022-11-03T04:40:27;97670.28;;;9.81;95.32
21980;BME280;11154;48.558;9.234;2022-11-03T04:42:30;97670.00;;;9.84;94.84
21980;BME280;11154;48.558;9.234;2022-11-03T04:44:33;97659.97;;;9.78;93.60
21980;BME280;11154;48.558;9.234;2022-11-03T04:46:34;97664.97;;;9.81;94.18
21980;BME280;11154;48.558;9.234;2022-11-03T04:48:36;97657.69;;;9.83;94.34
21980;BME280;11154;48.558;9.234;2022-11-03T04:50:38;97657.00;;;9.81;93.78
21980;BME280;11154;48.558;9.234;2022-11-03T04:52:40;97662.31;;;9.81;93.40
21980;BME280;11154;48.558;9.234;2022-11-03T04:54:43;97655.50;;;9.79;93.82
21980;BME280;11154;48.558;9.234;2022-11-03T04:56:46;97657.63;;;9.75;93.58
21980;BME280;11154;48.558;9.234;2022-11-03T04:58:48;97655.66;;;9.77;94.19
21980;BME280;11154;48.558;9.234;2022-11-03T05:00:51;97647.69;;;9.77;93.44
21980;BME280;11154;48.558;9.234;2022-11-03T05:02:53;97646.31;;;9.73;92.64
21980;BME280;11154;48.558;9.234;2022-11-03T05:04:55;97643.00;;;9.71;92.85
21980;BME280;11154;48.558;9.234;2022-11-03T05:06:56;97640.16;;;9.73;92.84
21980;BME280;11154;48.558;9.234;2022-11-03T05:09:01;97632.38;;;9.71;93.65
21980;BME280;11154;48.558;9.234;2022-11-03T05:11:15;97638.50;;;9.72;93.13
21980;BME280;11154;48.558;9.234;2022-11-03T05:13:20;97634.34;;;9.69;91.93
21980;BME280;11154;48.558;9.234;2022-11-03T05:15:28;97627.69;;;9.65;91.34
21980;BME280;11154;48.558;9.234;2022-11-03T05:17:30;97626.44;;;9.60;91.63
21980;BME280;11154;48.558;9.234;2022-11-03T05:19:33;97629.63;;;9.63;92.00
21980;BME280;11154;48.558;9.234;2022-11-03T05:21:36;97632.13;;;9.65;91.71
21980;BME280;11154;48.558;9.234;2022-11-03T05:23:39;97624.00;;;9.66;91.27
21980;BME280;11154;48.558;9.234;2022-11-03T05:25:42;97619.91;;;9.72;91.41
21980;BME280;11154;48.558;9.234;2022-11-03T05:27:47;97622.41;;;9.73;90.37
21980;BME280;11154;48.558;9.234;2022-11-03T05:29:49;97621.75;;;9.71;91.06
21980;BME280;11154;48.558;9.234;2022-11-03T05:31:52;97621.75;;;9.71;91.74
21980;BME280;11154;48.558;9.234;2022-11-03T05:33:57;97622.28;;;9.75;91.06
21980;BME280;11154;48.558;9.234;2022-11-03T05:36:02;97604.34;;;9.77;91.12
21980;BME280;11154;48.558;9.234;2022-11-03T05:38:10;97609.97;;;9.74;89.92
21980;BME280;11154;48.558;9.234;2022-11-03T05:40:15;97606.13;;;9.68;89.57
21980;BME280;11154;48.558;9.234;2022-11-03T05:42:28;97603.28;;;9.70;90.80
21980;BME280;11154;48.558;9.234;2022-11-03T05:44:35;97597.47;;;9.66;90.81
21980;BME280;11154;48.558;9.234;2022-11-03T05:46:37;97598.94;;;9.61;90.84
21980;BME280;11154;48.558;9.234;2022-11-03T05:48:40;97594.59;;;9.60;91.33
21980;BME280;11154;48.558;9.234;2022-11-03T05:50:43;97587.47;;;9.60;91.78
21980;BME280;11154;48.558;9.234;2022-11-03T05:52:46;97596.28;;;9.61;92.31
21980;BME280;11154;48.558;9.234;2022-11-03T05:54:49;97598.94;;;9.61;91.75
21980;BME280;11154;48.558;9.234;2022-11-03T05:56:50;97595.75;;;9.57;91.56
21980;BME280;11154;48.558;9.234;2022-11-03T05:58:54;97600.88;;;9.59;92.37
21980;BME280;11154;48.558;9.234;2022-11-03T06:00:59;97590.59;;;9.56;91.79
21980;BME280;11154;48.558;9.234;2022-11-03T06:03:03;97586.09;;;9.56;93.11
21980;BME280;11154;48.558;9.234;2022-11-03T06:05:11;97593.25;;;9.56;93.23
21980;BME280;11154;48.558;9.234;2022-11-03T06:07:21;97584.75;;;9.52;92.94
21980;BME280;11154;48.558;9.234;2022-11-03T06:09:25;97594.00;;;9.48;92.46
21980;BME280;11154;48.558;9.234;2022-11-03T06:11:35;97585.38;;;9.46;92.58
21980;BME280;11154;48.558;9.234;2022-11-03T06:13:37;97588.03;;;9.46;92.69
21980;BME280;11154;48.558;9.234;2022-11-03T06:15:41;97579.91;;;9.48;92.47
21980;BME280;11154;48.558;9.234;2022-11-03T06:17:45;97570.50;;;9.53;92.50
21980;BME280;11154;48.558;9.234;2022-11-03T06:19:48;97566.53;;;9.57;92.31
21980;BME280;11154;48.558;9.234;2022-11-03T06:21:53;97562.28;;;9.64;92.15
21980;BME280;11154;48.558;9.234;2022-11-03T06:23:55;97551.34;;;9.67;91.06
21980;BME280;11154;48.558;9.234;2022-11-03T06:26:00;97556.53;;;9.69;90.07
21980;BME280;11154;48.558;9.234;2022-11-03T06:28:04;97558.69;;;9.73;89.80
21980;BME280;11154;48.558;9.234;2022-11-03T06:30:19;97562.84;;;9.76;89.25
21980;BME280;11154;48.558;9.234;2022-11-03T06:32:23;97566.53;;;9.75;89.21
21980;BME280;11154;48.558;9.234;2022-11-03T06:34:36;97560.59;;;9.81;89.10
21980;BME280;11154;48.558;9.234;2022-11-03T06:36:39;97554.88;;;9.76;88.53
21980;BME280;11154;48.558;9.234;2022-11-03T06:38:42;97553.78;;;9.78;88.66
21980;BME280;11154;48.558;9.234;2022-11-03T06:40:48;97549.63;;;9.84;89.00
21980;BME280;11154;48.558;9.234;2022-11-03T06:42:51;97546.84;;;9.85;88.70
21980;BME280;11154;48.558;9.234;2022-11-03T06:44:55;97551.13;;;9.86;88.16
21980;BME280;11154;48.558;9.234;2022-11-03T06:46:59;97553.78;;;9.86;88.34
21980;BME280;11154;48.558;9.234;2022-11-03T06:49:23;97548.13;;;9.81;87.83
21980;BME280;11154;48.558;9.234;2022-11-03T06:51:28;97549.81;;;9.82;89.15
21980;BME280;11154;48.558;9.234;2022-11-03T06:53:31;97555.13;;;9.82;89.40
21980;BME280;11154;48.558;9.234;2022-11-03T06:55:34;97550.63;;;9.83;89.56
21980;BME280;11154;48.558;9.234;2022-11-03T06:57:39;97544.50;;;9.82;90.47
21980;BME280;11154;48.558;9.234;2022-11-03T06:59:42;97547.44;;;9.79;90.06
21980;BME280;11154;48.558;9.234;2022-11-03T07:01:45;97544.66;;;9.81;91.25
21980;BME280;11154;48.558;9.234;2022-11-03T07:03:50;97544.78;;;9.79;92.07
21980;BME280;11154;48.558;9.234;2022-11-03T07:05:55;97539.19;;;9.82;92.98
21980;BME280;11154;48.558;9.234;2022-11-03T07:08:01;97544.50;;;9.82;92.87
21980;BME280;11154;48.558;9.234;2022-11-03T07:10:04;97538.72;;;9.87;93.18
21980;BME280;11154;48.558;9.234;2022-11-03T07:12:14;97533.25;;;9.88;93.26
21980;BME280;11154;48.558;9.234;2022-11-03T07:14:19;97530.59;;;9.88;93.75
21980;BME280;11154;48.558;9.234;2022-11-03T07:16:26;97526.78;;;9.91;93.88
21980;BME280;11154;48.558;9.234;2022-11-03T07:18:30;97523.13;;;9.92;94.79
21980;BME280;11154;48.558;9.234;2022-11-03T07:20:34;97513.66;;;9.89;93.18
21980;BME280;11154;48.558;9.234;2022-11-03T07:22:36;97517.31;;;9.88;93.84
21980;BME280;11154;48.558;9.234;2022-11-03T07:24:40;97510.38;;;9.95;95.08
21980;BME280;11154;48.558;9.234;2022-11-03T07:26:44;97506.75;;;9.96;94.75
21980;BME280;11154;48.558;9.234;2022-11-03T07:28:46;97504.91;;;9.97;94.70
21980;BME280;11154;48.558;9.234;2022-11-03T07:30:48;97501.59;;;9.95;93.73
21980;BME280;11154;48.558;9.234;2022-11-03T07:32:51;97502.25;;;9.97;92.64
21980;BME280;11154;48.558;9.234;2022-11-03T07:35:03;97501.63;;;10.03;94.04
21980;BME280;11154;48.558;9.234;2022-11-03T07:37:07;97510.47;;;10.11;94.21
21980;BME280;11154;48.558;9.234;2022-11-03T07:39:12;97507.53;;;10.14;93.67
21980;BME280;11154;48.558;9.234;2022-11-03T07:41:19;97506.06;;;10.19;93.74
21980;BME280;11154;48.558;9.234;2022-11-03T07:43:26;97509.88;;;10.25;93.83
21980;BME280;11154;48.558;9.234;2022-11-03T07:45:34;97501.78;;;10.26;93.43
21980;BME280;11154;48.558;9.234;2022-11-03T07:47:36;97509.56;;;10.28;93.08
21980;BME280;11154;48.558;9.234;2022-11-03T07:49:39;97492.31;;;10.32;93.92
21980;BME280;11154;48.558;9.234;2022-11-03T07:51:41;97489.66;;;10.32;93.50
21980;BME280;11154;48.558;9.234;2022-11-03T07:53:44;97487.50;;;10.35;92.45
21980;BME280;11154;48.558;9.234;2022-11-03T07:55:46;97487.50;;;10.35;92.39
21980;BME280;11154;48.558;9.234;2022-11-03T07:57:49;97476.75;;;10.45;94.90
21980;BME280;11154;48.558;9.234;2022-11-03T07:59:54;97482.75;;;10.47;94.16
21980;BME280;11154;48.558;9.234;2022-11-03T08:01:58;97462.22;;;9.65;96.14
21980;BME280;11154;48.558;9.234;2022-11-03T08:04:02;97461.84;;;9.09;100.00
21980;BME280;11154;48.558;9.234;2022-11-03T08:06:05;97461.03;;;8.91;100.00
21980;BME280;11154;48.558;9.234;2022-11-03T08:08:06;97440.81;;;8.90;100.00
21980;BME280;11154;48.558;9.234;2022-11-03T08:10:08;97448.00;;;8.80;100.00
21980;BME280;11154;48.558;9.234;2022-11-03T08:12:10;97446.28;;;8.89;100.00
21980;BME280;11154;48.558;9.234;2022-11-03T08:14:13;97439.38;;;8.96;100.00
21980;BME280;11154;48.558;9.234;2022-11-03T08:16:15;97443.66;;;8.97;100.00
21980;BME280;11154;48.558;9.234;2022-11-03T08:18:16;97438.88;;;9.00;100.00
21980;BME280;11154;48.558;9.234;2022-11-03T08:20:19;97440.78;;;9.08;100.00
21980;BME280;11154;48.558;9.234;2022-11-03T08:22:21;97433.38;;;9.11;100.00
21980;BME280;11154;48.558;9.234;2022-11-03T08:24:25;97424.31;;;9.22;100.00
21980;BME280;11154;48.558;9.234;2022-11-03T08:26:27;97424.97;;;9.24;100.00
21980;BME280;11154;48.558;9.234;2022-11-03T08:28:28;97426.88;;;9.31;100.00
21980;BME280;11154;48.558;9.234;2022-11-03T08:30:31;97422.47;;;9.47;100.00
21980;BME280;11154;48.558;9.234;2022-11-03T08:32:35;97420.22;;;9.52;100.00
21980;BME280;11154;48.558;9.234;2022-11-03T08:34:36;97425.53;;;9.60;100.00
21980;BME280;11154;48.558;9.234;2022-11-03T08:36:39;97423.91;;;9.67;100.00
21980;BME280;11154;48.558;9.234;2022-11-03T08:38:41;97419.84;;;9.81;100.00
21980;BME280;11154;48.558;9.234;2022-11-03T08:40:43;97413.72;;;9.88;100.00
21980;BME280;11154;48.558;9.234;2022-11-03T08:42:44;97414.59;;;9.97;100.00
21980;BME280;11154;48.558;9.234;2022-11-03T08:44:46;97408.16;;;9.99;100.00
21980;BME280;11154;48.558;9.234;2022-11-03T08:46:49;97397.09;;;10.11;100.00
21980;BME280;11154;48.558;9.234;2022-11-03T08:48:51;97400.59;;;10.20;100.00
21980;BME280;11154;48.558;9.234;2022-11-03T08:50:54;97394.16;;;10.30;100.00
21980;BME280;11154;48.558;9.234;2022-11-03T08:52:56;97399.00;;;10.35;100.00
21980;BME280;11154;48.558;9.234;2022-11-03T08:54:57;97397.00;;;10.45;100.00
21980;BME280;11154;48.558;9.234;2022-11-03T08:56:59;97394.03;;;10.48;100.00
21980;BME280;11154;48.558;9.234;2022-11-03T08:59:00;97393.38;;;10.54;100.00
21980;BME280;11154;48.558;9.234;2022-11-03T09:01:02;97393.03;;;10.57;100.00
21980;BME280;11154;48.558;9.234;2022-11-03T09:03:05;97394.00;;;10.56;100.00
21980;BME280;11154;48.558;9.234;2022-11-03T09:05:07;97392.72;;;10.60;100.00
21980;BME280;11154;48.558;9.234;2022-11-03T09:07:09;97396.88;;;10.62;100.00
21980;BME280;11154;48.558;9.234;2022-11-03T09:09:11;97388.41;;;10.67;100.00
21980;BME280;11154;48.558;9.234;2022-11-03T09:11:12;97389.03;;;10.69;100.00
21980;BME280;11154;48.558;9.234;2022-11-03T09:13:14;97393.06;;;10.73;100.00
21980;BME280;11154;48.558;9.234;2022-11-03T09:15:16;97376.75;;;10.76;100.00
21980;BME280;11154;48.558;9.234;2022-11-03T09:17:17;97385.09;;;10.80;100.00
21980;BME280;11154;48.558;9.234;2022-11-03T09:19:20;97376.09;;;10.81;100.00
21980;BME280;11154;48.558;9.234;2022-11-03T09:21:22;97369.13;;;10.80;100.00
21980;BME280;11154;48.558;9.234;2022-11-03T09:23:24;97378.41;;;10.77;100.00
21980;BME280;11154;48.558;9.234;2022-11-03T09:25:25;97376.75;;;10.83;100.00
21980;BME280;11154;48.558;9.234;2022-11-03T09:27:27;97360.28;;;11.04;100.00
21980;BME280;11154;48.558;9.234;2022-11-03T09:29:29;97370.91;;;11.04;100.00
21980;BME280;11154;48.558;9.234;2022-11-03T09:31:30;97362.44;;;11.08;100.00
21980;BME280;11154;48.558;9.234;2022-11-03T09:33:32;97357.44;;;11.13;100.00
21980;BME280;11154;48.558;9.234;2022-11-03T09:35:35;97356.13;;;11.17;100.00
21980;BME280;11154;48.558;9.234;2022-11-03T09:37:37;97353.41;;;11.25;100.00
21980;BME280;11154;48.558;9.234;2022-11-03T09:39:38;97354.91;;;11.36;100.00
21980;BME280;11154;48.558;9.234;2022-11-03T09:41:40;97344.72;;;11.47;100.00
21980;BME280;11154;48.558;9.234;2022-11-03T09:43:43;97347.56;;;11.53;100.00
21980;BME280;11154;48.558;9.234;2022-11-03T09:45:45;97335.75;;;11.48;100.00
21980;BME280;11154;48.558;9.234;2022-11-03T09:47:47;97343.72;;;11.48;100.00
21980;BME280;11154;48.558;9.234;2022-11-03T09:49:48;97347.38;;;11.47;100.00
21980;BME280;11154;48.558;9.234;2022-11-03T09:51:52;97353.53;;;11.48;100.00
21980;BME280;11154;48.558;9.234;2022-11-03T09:53:56;97349.56;;;11.52;100.00
21980;BME280;11154;48.558;9.234;2022-11-03T09:55:59;97338.41;;;11.48;100.00
21980;BME280;11154;48.558;9.234;2022-11-03T09:58:08;97334.41;;;11.52;100.00
21980;BME280;11154;48.558;9.234;2022-11-03T10:00:17;97329.09;;;11.52;100.00
21980;BME280;11154;48.558;9.234;2022-11-03T10:02:23;97325.75;;;11.58;100.00
21980;BME280;11154;48.558;9.234;2022-11-03T10:04:26;97313.38;;;11.65;100.00
21980;BME280;11154;48.558;9.234;2022-11-03T10:06:29;97316.91;;;11.65;100.00
21980;BME280;11154;48.558;9.234;2022-11-03T10:08:34;97308.72;;;11.75;100.00
21980;BME280;11154;48.558;9.234;2022-11-03T10:10:39;97309.00;;;11.80;100.00
21980;BME280;11154;48.558;9.234;2022-11-03T10:12:40;97309.31;;;11.85;100.00
21980;BME280;11154;48.558;9.234;2022-11-03T10:14:43;97299.31;;;11.87;100.00
21980;BME280;11154;48.558;9.234;2022-11-03T10:16:51;97303.28;;;11.91;100.00
21980;BME280;11154;48.558;9.234;2022-11-03T10:18:53;97300.56;;;11.99;100.00
21980;BME280;11154;48.558;9.234;2022-11-03T10:21:04;97302.03;;;12.09;100.00
21980;BME280;11154;48.558;9.234;2022-11-03T10:23:07;97292.66;;;12.13;100.00
21980;BME280;11154;48.558;9.234;2022-11-03T10:25:33;97298.47;;;12.17;100.00
21980;BME280;11154;48.558;9.234;2022-11-03T10:27:35;97296.78;;;12.16;100.00
21980;BME280;11154;48.558;9.234;2022-11-03T10:29:37;97288.47;;;12.19;100.00
21980;BME280;11154;48.558;9.234;2022-11-03T10:31:39;97283.31;;;12.17;100.00
21980;BME280;11154;48.558;9.234;2022-11-03T10:33:50;97272.09;;;12.22;100.00
21980;BME280;11154;48.558;9.234;2022-11-03T10:35:54;97266.94;;;12.20;100.00
21980;BME280;11154;48.558;9.234;2022-11-03T10:37:59;97273.56;;;12.24;100.00
21980;BME280;11154;48.558;9.234;2022-11-03T10:40:33;97265.06;;;12.28;100.00
21980;BME280;11154;48.558;9.234;2022-11-03T10:42:35;97261.03;;;12.32;100.00
21980;BME280;11154;48.558;9.234;2022-11-03T10:44:38;97251.66;;;12.36;100.00
21980;BME280;11154;48.558;9.234;2022-11-03T10:46:40;97244.31;;;12.38;100.00
21980;BME280;11154;48.558;9.234;2022-11-03T10:49:03;97244.59;;;12.43;100.00
21980;BME280;11154;48.558;9.234;2022-11-03T10:51:09;97250.22;;;12.48;100.00
21980;BME280;11154;48.558;9.234;2022-11-03T10:53:15;97254.19;;;12.52;100.00
21980;BME280;11154;48.558;9.234;2022-11-03T10:55:20;97242.63;;;12.60;100.00
21980;BME280;11154;48.558;9.234;2022-11-03T10:57:24;97251.63;;;12.59;100.00
21980;BME280;11154;48.558;9.234;2022-11-03T10:59:30;97254.59;;;12.64;100.00
21980;BME280;11154;48.558;9.234;2022-11-03T11:01:32;97253.88;;;12.70;100.00